createdAt,value
2018-05-14T00:01:36.057Z,36.23
2018-05-14T00:04:02.413Z,33.77
2018-05-14T00:06:28.746Z,44.67
2018-05-14T00:08:55.061Z,29.20
2018-05-14T00:11:21.401Z,33.47
2018-05-14T00:13:47.742Z,36.47
2018-05-14T00:16:14.069Z,27.73
2018-05-14T00:18:40.393Z,32.53
2018-05-14T00:21:07.730Z,27.13
2018-05-14T00:23:34.041Z,28.53
2018-05-14T00:26:01.104Z,26.80
2018-05-14T00:28:27.427Z,22.00
2018-05-14T00:30:53.746Z,26.20
2018-05-14T00:33:20.810Z,29.03
2018-05-14T00:35:47.128Z,29.90
2018-05-14T00:38:14.190Z,32.73
2018-05-14T00:40:40.517Z,57.63
2018-05-14T00:43:06.838Z,32.30
2018-05-14T00:45:33.206Z,35.97
2018-05-14T00:47:59.717Z,40.03
2018-05-14T00:50:26.029Z,33.93
2018-05-14T00:52:53.650Z,40.30
2018-05-14T00:55:19.969Z,46.27
2018-05-14T00:57:46.293Z,45.03
2018-05-14T01:00:12.652Z,45.80
2018-05-14T01:02:39.987Z,51.47
2018-05-14T01:05:06.378Z,53.67
2018-05-14T01:07:32.701Z,51.60
2018-05-14T01:09:59.792Z,55.27
2018-05-14T01:12:26.125Z,51.63
2018-05-14T01:14:52.441Z,52.40
2018-05-14T01:17:18.780Z,54.97
2018-05-14T01:19:45.095Z,59.33
2018-05-14T01:22:11.417Z,64.90
2018-05-14T01:24:37.769Z,69.40
2018-05-14T01:27:04.101Z,68.97
2018-05-14T01:29:30.437Z,80.63
2018-05-14T01:31:56.776Z,113.97
2018-05-14T01:34:23.101Z,115.57
2018-05-14T01:36:49.485Z,106.57
2018-05-14T01:39:16.529Z,124.87
2018-05-14T01:41:43.585Z,101.37
2018-05-14T01:44:09.905Z,85.97
2018-05-14T01:46:37.025Z,142.50
2018-05-14T01:49:03.344Z,162.33
2018-05-14T01:51:29.665Z,144.00
2018-05-14T01:53:56.004Z,132.87
2018-05-14T01:56:22.489Z,137.13
2018-05-14T01:58:48.809Z,97.87
2018-05-14T02:01:15.869Z,70.57
2018-05-14T02:03:42.192Z,68.73
2018-05-14T02:06:09.373Z,65.57
2018-05-14T02:08:35.648Z,73.63
2018-05-14T02:11:01.973Z,90.07
2018-05-14T02:13:28.285Z,92.17
2018-05-14T02:15:54.609Z,113.40
2018-05-14T02:18:20.941Z,102.97
2018-05-14T02:20:47.269Z,60.37
2018-05-14T02:23:13.589Z,65.67
2018-05-14T02:25:39.908Z,225.33
2018-05-14T02:28:06.257Z,103.63
2018-05-14T02:30:32.590Z,132.70
2018-05-14T02:32:58.916Z,108.60
2018-05-14T02:35:25.245Z,91.43
2018-05-14T02:37:51.561Z,118.23
2018-05-14T02:40:17.926Z,103.70
2018-05-14T02:42:44.230Z,192.80
2018-05-14T02:45:10.572Z,377.53
2018-05-14T02:47:36.921Z,107.63
2018-05-14T02:50:03.261Z,441.10
2018-05-14T02:52:29.588Z,512.90
2018-05-14T02:54:57.393Z,122.77
2018-05-14T02:57:24.441Z,263.40
2018-05-14T02:59:51.530Z,285.40
2018-05-14T03:02:17.872Z,293.87
2018-05-14T03:04:44.218Z,205.73
2018-05-14T03:07:10.534Z,227.73
2018-05-14T03:09:37.881Z,226.63
2018-05-14T03:12:04.205Z,140.23
2018-05-14T03:14:31.521Z,119.07
2018-05-14T03:16:57.840Z,157.30
2018-05-14T03:19:24.933Z,138.47
2018-05-14T03:21:51.272Z,114.17
2018-05-14T03:24:18.616Z,101.63
2018-05-14T03:26:44.960Z,78.50
2018-05-14T03:29:11.278Z,99.80
2018-05-14T03:31:37.593Z,83.00
2018-05-14T03:34:03.954Z,80.70
2018-05-14T03:36:30.273Z,74.63
2018-05-14T03:38:56.597Z,102.50
2018-05-14T03:41:24.400Z,94.07
2018-05-14T03:43:51.700Z,135.03
2018-05-14T03:46:18.022Z,94.37
2018-05-14T03:48:45.077Z,86.93
2018-05-14T03:51:11.408Z,84.60
2018-05-14T03:53:38.761Z,114.33
2018-05-14T03:56:05.076Z,93.53
2018-05-14T03:58:44.601Z,78.23
2018-05-14T04:01:14.773Z,75.67
2018-05-14T04:03:53.445Z,82.47
2018-05-14T04:06:32.723Z,75.23
2018-05-14T04:08:59.041Z,68.30
2018-05-14T04:11:26.218Z,66.10
2018-05-14T04:13:52.524Z,78.50
2018-05-14T04:16:18.846Z,63.37
2018-05-14T04:18:45.152Z,64.40
2018-05-14T04:21:12.217Z,70.67
2018-05-14T04:23:38.540Z,65.90
2018-05-14T04:26:05.597Z,65.00
2018-05-14T04:28:31.929Z,83.17
2018-05-14T04:30:58.386Z,66.87
2018-05-14T04:33:24.697Z,74.23
2018-05-14T04:35:51.019Z,78.53
2018-05-14T04:38:18.068Z,80.17
2018-05-14T04:40:44.404Z,83.97
2018-05-14T04:43:10.784Z,55.33
2018-05-14T04:45:37.100Z,53.87
2018-05-14T04:48:03.433Z,61.50
2018-05-14T04:50:29.773Z,69.47
2018-05-14T04:52:56.093Z,54.17
2018-05-14T04:55:22.476Z,55.60
2018-05-14T04:57:49.545Z,56.70
2018-05-14T05:00:15.886Z,53.60
2018-05-14T05:02:42.221Z,54.73
2018-05-14T05:05:08.541Z,49.20
2018-05-14T05:07:34.893Z,51.00
2018-05-14T05:10:01.224Z,47.90
2018-05-14T05:12:27.566Z,49.17
2018-05-14T05:14:53.892Z,41.07
2018-05-14T05:17:20.217Z,39.30
2018-05-14T05:19:46.535Z,44.30
2018-05-14T05:22:13.860Z,38.70
2018-05-14T05:24:40.912Z,30.47
2018-05-14T05:27:07.961Z,32.47
2018-05-14T05:29:34.286Z,34.07
2018-05-14T05:32:01.353Z,33.40
2018-05-14T05:34:27.719Z,34.83
2018-05-14T05:36:54.020Z,34.13
2018-05-14T05:39:20.329Z,29.60
2018-05-14T05:41:47.376Z,30.17
2018-05-14T05:44:13.712Z,26.67
2018-05-14T05:46:40.033Z,28.67
2018-05-14T05:49:07.085Z,26.80
2018-05-14T05:51:33.405Z,26.97
2018-05-14T05:54:00.457Z,26.03
2018-05-14T05:56:27.518Z,24.80
2018-05-14T05:58:54.873Z,22.93
2018-05-14T06:01:22.247Z,23.60
2018-05-14T06:03:49.273Z,23.20
2018-05-14T06:06:15.625Z,23.37
2018-05-14T06:08:41.932Z,22.27
2018-05-14T06:11:08.254Z,21.27
2018-05-14T06:13:35.308Z,25.07
2018-05-14T06:16:01.633Z,23.53
2018-05-14T06:18:28.697Z,21.07
2018-05-14T06:20:55.013Z,22.73
2018-05-14T06:23:21.332Z,19.50
2018-05-14T06:25:48.409Z,20.57
2018-05-14T06:28:14.719Z,19.70
2018-05-14T06:30:42.784Z,22.57
2018-05-14T06:33:09.841Z,22.10
2018-05-14T06:35:37.250Z,19.67
2018-05-14T06:38:04.273Z,21.03
2018-05-14T06:40:30.593Z,20.80
2018-05-14T06:42:56.900Z,18.47
2018-05-14T06:45:23.954Z,18.37
2018-05-14T06:47:50.272Z,17.13
2018-05-14T06:50:17.335Z,19.80
2018-05-14T06:52:43.653Z,18.37
2018-05-14T06:55:10.801Z,20.57
2018-05-14T06:57:37.053Z,20.57
2018-05-14T07:00:04.130Z,19.90
2018-05-14T07:02:31.465Z,21.87
2018-05-14T07:04:57.768Z,16.40
2018-05-14T07:07:24.817Z,17.80
2018-05-14T07:09:52.135Z,15.77
2018-05-14T07:12:18.485Z,19.73
2018-05-14T07:14:44.809Z,18.80
2018-05-14T07:17:11.121Z,18.50
2018-05-14T07:19:37.460Z,20.20
2018-05-14T07:22:04.809Z,16.97
2018-05-14T07:24:31.122Z,19.57
2018-05-14T07:26:58.445Z,19.63
2018-05-14T07:29:25.509Z,16.17
2018-05-14T07:31:51.824Z,18.50
2018-05-14T07:34:18.874Z,19.30
2018-05-14T07:36:45.954Z,16.20
2018-05-14T07:39:12.272Z,16.87
2018-05-14T07:41:38.588Z,19.27
2018-05-14T07:44:04.909Z,17.63
2018-05-14T07:46:31.969Z,17.07
2018-05-14T07:48:58.285Z,15.60
2018-05-14T07:51:25.377Z,15.93
2018-05-14T07:53:51.688Z,16.83
2018-05-14T07:56:17.996Z,18.53
2018-05-14T07:58:45.074Z,16.60
2018-05-14T08:01:11.380Z,16.67
2018-05-14T08:03:38.433Z,17.90
2018-05-14T08:06:04.757Z,16.03
2018-05-14T08:08:31.815Z,16.23
2018-05-14T08:10:58.144Z,15.97
2018-05-14T08:13:24.484Z,15.33
2018-05-14T08:15:50.813Z,15.47
2018-05-14T08:18:17.131Z,14.87
2018-05-14T08:20:44.180Z,14.83
2018-05-14T08:23:10.504Z,15.00
2018-05-14T08:25:37.557Z,14.50
2018-05-14T08:28:03.884Z,15.60
2018-05-14T08:30:30.959Z,14.50
2018-05-14T08:32:57.278Z,15.57
2018-05-14T08:35:23.645Z,14.90
2018-05-14T08:37:50.946Z,14.47
2018-05-14T08:40:18.013Z,14.67
2018-05-14T08:42:44.325Z,14.37
2018-05-14T08:45:12.417Z,14.43
2018-05-14T08:47:39.713Z,13.67
2018-05-14T08:50:06.040Z,14.07
2018-05-14T08:52:32.353Z,14.97
2018-05-14T08:54:58.670Z,13.23
2018-05-14T08:57:24.977Z,13.60
2018-05-14T08:59:53.041Z,12.63
2018-05-14T09:02:20.099Z,13.67
2018-05-14T09:04:47.143Z,18.17
2018-05-14T09:07:15.211Z,13.80
2018-05-14T09:09:42.261Z,14.83
2018-05-14T09:12:09.328Z,12.20
2018-05-14T09:14:35.637Z,14.10
2018-05-14T09:17:02.716Z,13.20
2018-05-14T09:19:29.046Z,14.47
2018-05-14T09:21:55.349Z,14.93
2018-05-14T09:24:22.471Z,13.70
2018-05-14T09:26:49.533Z,15.00
2018-05-14T09:29:16.584Z,13.87
2018-05-14T09:31:45.349Z,13.10
2018-05-14T09:34:18.762Z,13.50
2018-05-14T09:36:45.821Z,15.60
2018-05-14T09:39:13.897Z,16.20
2018-05-14T09:41:40.944Z,14.40
2018-05-14T09:44:08.029Z,14.80
2018-05-14T09:46:34.341Z,14.97
2018-05-14T09:49:00.653Z,13.67
2018-05-14T09:51:27.730Z,13.57
2018-05-14T09:53:54.045Z,13.30
2018-05-14T09:56:20.365Z,13.97
2018-05-14T09:58:47.412Z,14.23
2018-05-14T10:01:15.481Z,14.07
2018-05-14T10:03:42.532Z,13.40
2018-05-14T10:06:09.608Z,17.33
2018-05-14T10:08:35.917Z,14.97
2018-05-14T10:11:02.228Z,14.97
2018-05-14T10:13:29.291Z,13.93
2018-05-14T10:15:56.345Z,13.57
2018-05-14T10:18:23.405Z,15.90
2018-05-14T10:20:49.713Z,14.97
2018-05-14T10:23:16.764Z,16.30
2018-05-14T10:25:43.813Z,16.70
2018-05-14T10:28:10.879Z,16.40
2018-05-14T10:30:37.194Z,16.03
2018-05-14T10:33:03.501Z,15.40
2018-05-14T10:35:30.804Z,17.77
2018-05-14T10:37:58.127Z,16.30
2018-05-14T10:40:25.176Z,15.50
2018-05-14T10:42:52.225Z,17.67
2018-05-14T10:45:19.283Z,17.43
2018-05-14T10:47:45.594Z,17.80
2018-05-14T10:50:12.646Z,18.43
2018-05-14T10:52:39.700Z,18.90
2018-05-14T10:55:06.756Z,16.17
2018-05-14T10:57:33.279Z,20.07
2018-05-14T10:59:59.581Z,16.63
2018-05-14T11:02:25.901Z,19.33
2018-05-14T11:04:53.215Z,16.70
2018-05-14T11:07:20.597Z,17.10
2018-05-14T11:09:46.902Z,19.50
2018-05-14T11:12:13.214Z,16.30
2018-05-14T11:14:39.537Z,17.07
2018-05-14T11:17:06.581Z,17.20
2018-05-14T11:19:34.536Z,18.97
2018-05-14T11:22:00.872Z,16.33
2018-05-14T11:24:27.999Z,20.63
2018-05-14T11:26:54.309Z,18.80
2018-05-14T11:29:20.619Z,18.63
2018-05-14T11:31:46.933Z,18.60
2018-05-14T11:34:13.501Z,17.03
2018-05-14T11:36:39.809Z,16.77
2018-05-14T11:39:06.125Z,16.27
2018-05-14T11:41:33.165Z,16.10
2018-05-14T11:44:00.555Z,17.50
2018-05-14T11:46:26.858Z,15.43
2018-05-14T11:48:53.173Z,16.40
2018-05-14T11:51:20.237Z,18.83
2018-05-14T11:53:46.637Z,15.90
2018-05-14T11:56:13.148Z,14.63
2018-05-14T11:58:39.509Z,15.50
2018-05-14T12:01:05.828Z,15.60
2018-05-14T12:03:32.145Z,13.90
2018-05-14T12:05:58.476Z,15.33
2018-05-14T12:08:24.778Z,17.93
2018-05-14T12:10:51.090Z,16.23
2018-05-14T12:13:17.581Z,17.80
2018-05-14T12:15:45.380Z,17.13
2018-05-14T12:18:12.515Z,17.47
2018-05-14T12:20:38.749Z,15.60
2018-05-14T12:23:05.801Z,17.07
2018-05-14T12:25:32.845Z,17.80
2018-05-14T12:27:59.905Z,17.67
2018-05-14T12:30:26.216Z,17.30
2018-05-14T12:32:53.525Z,19.23
2018-05-14T12:35:19.842Z,17.93
2018-05-14T12:37:46.161Z,17.20
2018-05-14T12:40:12.554Z,16.53
2018-05-14T12:42:38.824Z,15.30
2018-05-14T12:45:05.132Z,17.43
2018-05-14T12:47:32.185Z,17.13
2018-05-14T12:49:59.240Z,20.00
2018-05-14T12:52:25.562Z,18.97
2018-05-14T12:54:52.629Z,18.53
2018-05-14T12:57:20.069Z,20.30
2018-05-14T12:59:46.330Z,20.67
2018-05-14T13:02:12.668Z,19.13
2018-05-14T13:04:38.969Z,18.27
2018-05-14T13:07:05.299Z,17.40
2018-05-14T13:09:31.622Z,20.37
2018-05-14T13:11:57.942Z,21.67
2018-05-14T13:14:24.979Z,21.17
2018-05-14T13:16:52.041Z,18.80
2018-05-14T13:19:20.149Z,18.13
2018-05-14T13:21:46.452Z,19.80
2018-05-14T13:24:12.778Z,21.90
2018-05-14T13:26:40.841Z,19.03
2018-05-14T13:29:07.902Z,19.17
2018-05-14T13:31:34.225Z,17.50
2018-05-14T13:34:01.289Z,19.03
2018-05-14T13:36:27.598Z,17.00
2018-05-14T13:38:54.659Z,17.60
2018-05-14T13:41:20.965Z,20.40
2018-05-14T13:43:49.029Z,18.63
2018-05-14T13:46:15.381Z,20.27
2018-05-14T13:48:42.469Z,20.37
2018-05-14T13:51:08.773Z,21.13
2018-05-14T13:53:35.073Z,21.33
2018-05-14T13:56:01.386Z,20.83
2018-05-14T13:58:27.719Z,23.63
2018-05-14T14:00:54.769Z,24.87
2018-05-14T14:03:21.072Z,24.30
2018-05-14T14:05:47.383Z,21.33
2018-05-14T14:08:13.689Z,20.00
2018-05-14T14:10:40.741Z,22.90
2018-05-14T14:13:07.780Z,21.17
2018-05-14T14:15:34.829Z,21.00
2018-05-14T14:18:01.889Z,20.93
2018-05-14T14:20:29.259Z,22.97
2018-05-14T14:22:55.593Z,18.00
2018-05-14T14:25:21.906Z,19.00
2018-05-14T14:27:48.214Z,23.10
2018-05-14T14:30:15.281Z,19.30
2018-05-14T14:32:41.605Z,17.13
2018-05-14T14:35:08.673Z,17.60
2018-05-14T14:37:36.038Z,17.70
2018-05-14T14:40:03.401Z,20.07
2018-05-14T14:42:29.721Z,20.93
2018-05-14T14:44:56.047Z,21.47
2018-05-14T14:47:23.397Z,22.23
2018-05-14T14:49:49.713Z,18.60
2018-05-14T14:52:16.783Z,17.03
2018-05-14T14:54:43.097Z,16.90
2018-05-14T14:57:09.616Z,14.17
2018-05-14T14:59:36.681Z,14.20
2018-05-14T15:02:02.993Z,13.70
2018-05-14T15:04:30.053Z,18.00
2018-05-14T15:06:56.422Z,13.77
2018-05-14T15:09:22.745Z,14.40
2018-05-14T15:11:49.069Z,14.20
2018-05-14T15:14:15.376Z,13.00
2018-05-14T15:16:41.694Z,14.57
2018-05-14T15:19:08.746Z,13.20
2018-05-14T15:21:35.794Z,12.70
2018-05-14T15:24:02.881Z,11.33
2018-05-14T15:26:29.192Z,10.23
2018-05-14T15:28:55.505Z,10.30
2018-05-14T15:31:22.745Z,7.50
2018-05-14T15:33:49.797Z,6.77
2018-05-14T15:36:16.849Z,7.00
2018-05-14T15:38:43.909Z,6.80
2018-05-14T15:41:10.222Z,5.80
2018-05-14T15:43:37.276Z,8.20
2018-05-14T15:46:04.337Z,14.10
2018-05-14T15:48:30.689Z,10.30
2018-05-14T15:50:57.025Z,10.27
2018-05-14T15:53:23.452Z,7.83
2018-05-14T15:55:49.765Z,7.60
2018-05-14T15:58:16.077Z,7.83
2018-05-14T16:00:43.133Z,10.27
2018-05-14T16:03:10.465Z,13.10
2018-05-14T16:05:38.555Z,8.93
2018-05-14T16:08:04.929Z,9.23
2018-05-14T16:10:31.230Z,6.93
2018-05-14T16:12:57.550Z,7.90
2018-05-14T16:15:23.868Z,9.63
2018-05-14T16:17:50.925Z,10.37
2018-05-14T16:20:18.243Z,8.60
2018-05-14T16:22:44.569Z,8.37
2018-05-14T16:25:12.369Z,8.30
2018-05-14T16:27:39.424Z,11.50
2018-05-14T16:30:05.765Z,8.10
2018-05-14T16:32:32.089Z,8.00
2018-05-14T16:34:58.401Z,10.23
2018-05-14T16:37:26.463Z,8.23
2018-05-14T16:39:53.557Z,8.03
2018-05-14T16:42:19.870Z,12.50
2018-05-14T16:44:46.193Z,11.67
2018-05-14T16:47:12.518Z,8.90
2018-05-14T16:49:39.581Z,15.17
2018-05-14T16:52:05.928Z,8.43
2018-05-14T16:54:32.230Z,8.20
2018-05-14T16:56:59.309Z,9.00
2018-05-14T16:59:25.648Z,8.73
2018-05-14T17:01:52.148Z,7.60
2018-05-14T17:04:18.460Z,8.50
2018-05-14T17:06:45.524Z,10.57
2018-05-14T17:09:12.829Z,8.47
2018-05-14T17:11:39.141Z,9.77
2018-05-14T17:14:05.465Z,10.90
2018-05-14T17:16:31.808Z,12.47
2018-05-14T17:18:58.125Z,12.40
2018-05-14T17:21:24.461Z,9.40
2018-05-14T17:23:50.813Z,9.17
2018-05-14T17:26:17.133Z,11.80
2018-05-14T17:28:43.451Z,9.80
2018-05-14T17:31:09.785Z,10.90
2018-05-14T17:33:36.264Z,16.17
2018-05-14T17:36:02.617Z,13.00
2018-05-14T17:38:28.953Z,13.27
2018-05-14T17:40:55.272Z,16.20
2018-05-14T17:43:22.474Z,10.60
2018-05-14T17:45:50.484Z,12.13
2018-05-14T17:48:18.603Z,15.37
2018-05-14T17:50:44.937Z,11.40
2018-05-14T17:53:11.241Z,11.87
2018-05-14T17:55:37.560Z,12.23
2018-05-14T17:58:04.628Z,12.60
2018-05-14T18:00:30.948Z,18.70
2018-05-14T18:02:57.273Z,27.60
2018-05-14T18:05:24.328Z,25.30
2018-05-14T18:07:50.652Z,39.77
2018-05-14T18:10:17.706Z,35.00
2018-05-14T18:12:44.029Z,11.70
2018-05-14T18:15:14.905Z,11.40
2018-05-14T18:17:41.234Z,17.63
2018-05-14T18:20:13.853Z,13.40
2018-05-14T18:22:40.255Z,14.00
2018-05-14T18:25:12.669Z,13.93
2018-05-14T18:27:45.136Z,15.20
2018-05-14T18:30:11.473Z,17.70
2018-05-14T18:32:38.673Z,20.07
2018-05-14T18:35:11.093Z,16.60
2018-05-14T18:37:37.393Z,12.80
2018-05-14T18:40:03.765Z,10.83
2018-05-14T18:42:30.057Z,10.47
2018-05-14T18:44:56.393Z,12.13
2018-05-14T18:47:22.785Z,11.13
2018-05-14T18:49:49.074Z,12.20
2018-05-14T18:52:15.345Z,12.53
2018-05-14T18:54:42.692Z,14.03
2018-05-14T18:57:08.981Z,14.73
2018-05-14T18:59:35.290Z,15.57
2018-05-14T19:02:02.322Z,18.00
2018-05-14T19:04:28.618Z,15.60
2018-05-14T19:06:54.917Z,16.93
2018-05-14T19:09:21.958Z,15.13
2018-05-14T19:11:50.161Z,19.60
2018-05-14T19:14:16.471Z,15.53
2018-05-14T19:16:49.549Z,16.77
2018-05-14T19:19:15.836Z,15.50
2018-05-14T19:21:42.144Z,15.50
2018-05-14T19:24:09.201Z,14.70
2018-05-14T19:26:35.680Z,17.47
2018-05-14T19:29:08.062Z,16.60
2018-05-14T19:31:34.348Z,16.30
2018-05-14T19:34:06.717Z,15.93
2018-05-14T19:36:33.013Z,11.07
2018-05-14T19:38:59.316Z,10.63
2018-05-14T19:41:25.629Z,12.70
2018-05-14T19:43:52.657Z,13.60
2018-05-14T19:46:18.949Z,11.57
2018-05-14T19:48:45.547Z,10.57
2018-05-14T19:51:12.565Z,9.50
2018-05-14T19:53:38.868Z,11.10
2018-05-14T19:56:05.175Z,11.43
2018-05-14T19:58:31.477Z,13.43
2018-05-14T20:00:58.590Z,9.70
2018-05-14T20:03:25.597Z,10.37
2018-05-14T20:05:53.625Z,11.40
2018-05-14T20:08:19.939Z,9.83
2018-05-14T20:10:46.217Z,11.93
2018-05-14T20:13:13.264Z,12.60
2018-05-14T20:15:41.298Z,11.77
2018-05-14T20:18:08.625Z,13.47
2018-05-14T20:20:34.918Z,11.50
2018-05-14T20:23:01.224Z,13.07
2018-05-14T20:25:27.523Z,13.50
2018-05-14T20:27:53.820Z,13.73
2018-05-14T20:30:20.856Z,13.40
2018-05-14T20:32:47.133Z,15.53
2018-05-14T20:35:13.449Z,15.70
2018-05-14T20:37:39.729Z,18.73
2018-05-14T20:40:06.049Z,15.37
2018-05-14T20:42:32.337Z,21.30
2018-05-14T20:44:59.392Z,17.00
2018-05-14T20:47:26.465Z,14.97
2018-05-14T20:49:52.765Z,15.13
2018-05-14T20:52:19.067Z,16.83
2018-05-14T20:54:45.385Z,17.47
2018-05-14T20:57:11.684Z,14.53
2018-05-14T20:59:38.750Z,18.03
2018-05-14T21:02:05.065Z,19.20
2018-05-14T21:04:32.117Z,18.80
2018-05-14T21:06:59.171Z,16.53
2018-05-14T21:09:25.491Z,18.03
2018-05-14T21:11:52.561Z,16.17
2018-05-14T21:14:18.876Z,18.80
2018-05-14T21:16:45.950Z,19.07
2018-05-14T21:19:12.237Z,18.30
2018-05-14T21:21:39.301Z,17.77
2018-05-14T21:24:05.581Z,18.77
2018-05-14T21:26:31.901Z,19.40
2018-05-14T21:28:58.177Z,17.13
2018-05-14T21:31:24.473Z,21.93
2018-05-14T21:33:50.872Z,18.00
2018-05-14T21:36:17.184Z,18.00
2018-05-14T21:38:45.208Z,18.37
2018-05-14T21:41:11.523Z,21.97
2018-05-14T21:43:37.802Z,17.30
2018-05-14T21:46:04.130Z,20.63
2018-05-14T21:48:30.412Z,17.37
2018-05-14T21:50:56.709Z,17.03
2018-05-14T21:53:23.725Z,14.70
2018-05-14T21:55:50.825Z,17.97
2018-05-14T21:58:17.101Z,21.60
2018-05-14T22:00:43.409Z,15.30
2018-05-14T22:03:09.711Z,15.17
2018-05-14T22:05:48.337Z,15.60
2018-05-14T22:08:14.646Z,13.03
2018-05-14T22:10:40.950Z,15.10
2018-05-14T22:13:07.969Z,15.13
2018-05-14T22:15:34.270Z,14.57
2018-05-14T22:18:00.573Z,12.80
2018-05-14T22:20:26.877Z,13.20
2018-05-14T22:22:53.910Z,11.83
2018-05-14T22:25:20.217Z,17.90
2018-05-14T22:27:46.503Z,13.10
2018-05-14T22:30:12.809Z,14.90
2018-05-14T22:32:39.109Z,14.60
2018-05-14T22:35:05.424Z,11.80
2018-05-14T22:37:31.761Z,12.03
2018-05-14T22:39:58.026Z,15.77
2018-05-14T22:42:24.356Z,12.77
2018-05-14T22:44:50.665Z,13.47
2018-05-14T22:47:16.996Z,17.70
2018-05-14T22:49:43.302Z,12.73
2018-05-14T22:52:09.601Z,12.13
2018-05-14T22:54:36.648Z,14.60
2018-05-14T22:57:03.682Z,11.53
2018-05-14T22:59:30.745Z,11.60
2018-05-14T23:01:57.761Z,11.60
2018-05-14T23:04:24.037Z,13.17
2018-05-14T23:06:50.385Z,14.80
2018-05-14T23:09:16.677Z,13.67
2018-05-14T23:11:43.771Z,15.20
2018-05-14T23:14:10.040Z,11.67
2018-05-14T23:16:36.364Z,13.33
2018-05-14T23:19:03.405Z,17.23
2018-05-14T23:21:29.721Z,15.67
2018-05-14T23:23:56.041Z,14.23
2018-05-14T23:26:22.349Z,15.23
2018-05-14T23:28:48.624Z,14.17
2018-05-14T23:31:14.933Z,19.17
2018-05-14T23:33:41.204Z,15.13
2018-05-14T23:36:08.270Z,17.57
2018-05-14T23:38:34.562Z,17.00
2018-05-14T23:41:00.864Z,14.77
2018-05-14T23:43:27.244Z,18.67
2018-05-14T23:45:54.344Z,17.83
2018-05-14T23:48:20.632Z,21.23
2018-05-14T23:50:47.681Z,25.30
2018-05-14T23:53:14.699Z,20.00
2018-05-14T23:55:41.770Z,21.20
2018-05-14T23:58:08.789Z,20.57
